createdAt,value
2018-07-21T00:00:37.329Z,8.20
2018-07-21T00:03:06.886Z,6.80
2018-07-21T00:05:38.103Z,7.80
2018-07-21T00:08:08.016Z,12.63
2018-07-21T00:10:38.959Z,7.70
2018-07-21T00:13:08.426Z,6.20
2018-07-21T00:15:38.206Z,9.17
2018-07-21T00:18:07.966Z,7.43
2018-07-21T00:20:37.779Z,6.13
2018-07-21T00:23:08.147Z,7.10
2018-07-21T00:25:38.319Z,6.80
2018-07-21T00:28:07.796Z,6.73
2018-07-21T00:30:37.343Z,7.30
2018-07-21T00:33:06.839Z,7.40
2018-07-21T00:35:36.622Z,6.90
2018-07-21T00:38:06.057Z,6.33
2018-07-21T00:40:36.304Z,6.27
2018-07-21T00:43:06.849Z,6.57
2018-07-21T00:45:37.128Z,6.30
2018-07-21T00:48:06.632Z,8.47
2018-07-21T00:50:36.353Z,7.47
2018-07-21T00:53:06.614Z,6.27
2018-07-21T00:55:36.435Z,6.33
2018-07-21T00:58:06.199Z,6.23
2018-07-21T01:00:36.336Z,7.10
2018-07-21T01:03:06.036Z,8.20
2018-07-21T01:05:35.987Z,7.87
2018-07-21T01:08:05.870Z,6.90
2018-07-21T01:10:37.161Z,7.30
2018-07-21T01:13:07.125Z,6.60
2018-07-21T01:15:37.293Z,6.47
2018-07-21T01:18:07.390Z,6.90
2018-07-21T01:20:37.109Z,7.87
2018-07-21T01:23:07.224Z,7.60
2018-07-21T01:25:36.718Z,7.10
2018-07-21T01:28:08.254Z,7.20
2018-07-21T01:30:38.081Z,7.10
2018-07-21T01:33:07.724Z,7.57
2018-07-21T01:35:37.420Z,7.67
2018-07-21T01:38:07.224Z,9.00
2018-07-21T01:40:37.033Z,7.47
2018-07-21T01:43:06.957Z,7.73
2018-07-21T01:45:37.934Z,8.10
2018-07-21T01:48:07.810Z,6.27
2018-07-21T01:50:38.062Z,6.87
2018-07-21T01:53:07.781Z,7.17
2018-07-21T01:55:37.284Z,7.57
2018-07-21T01:58:07.195Z,7.43
2018-07-21T02:00:36.641Z,7.30
2018-07-21T02:03:06.459Z,7.10
2018-07-21T02:05:37.161Z,7.60
2018-07-21T02:08:07.508Z,7.20
2018-07-21T02:10:37.796Z,7.13
2018-07-21T02:13:08.125Z,7.03
2018-07-21T02:15:37.994Z,8.00
2018-07-21T02:18:07.766Z,7.50
2018-07-21T02:20:37.857Z,7.30
2018-07-21T02:23:07.796Z,7.50
2018-07-21T02:25:37.745Z,6.70
2018-07-21T02:28:07.859Z,11.60
2018-07-21T02:30:37.675Z,7.80
2018-07-21T02:33:07.429Z,9.00
2018-07-21T02:35:37.692Z,7.83
2018-07-21T02:38:07.527Z,6.60
2018-07-21T02:40:37.399Z,7.97
2018-07-21T02:43:07.326Z,7.67
2018-07-21T02:45:37.341Z,9.03
2018-07-21T02:48:07.283Z,8.20
2018-07-21T02:50:38.025Z,8.73
2018-07-21T02:53:08.851Z,8.23
2018-07-21T02:55:39.915Z,8.57
2018-07-21T02:58:11.831Z,7.27
2018-07-21T03:00:41.850Z,7.70
2018-07-21T03:03:11.765Z,8.13
2018-07-21T03:05:42.020Z,8.30
2018-07-21T03:08:12.337Z,8.50
2018-07-21T03:10:43.426Z,8.30
2018-07-21T03:13:13.387Z,8.23
2018-07-21T03:15:43.548Z,8.80
2018-07-21T03:18:13.215Z,8.17
2018-07-21T03:20:43.020Z,7.30
2018-07-21T03:23:12.483Z,7.73
2018-07-21T03:25:42.345Z,7.77
2018-07-21T03:28:12.278Z,8.37
2018-07-21T03:30:42.191Z,8.63
2018-07-21T03:33:11.977Z,8.87
2018-07-21T03:35:41.923Z,8.70
2018-07-21T03:38:11.842Z,9.93
2018-07-21T03:40:41.537Z,7.63
2018-07-21T03:43:11.626Z,8.10
2018-07-21T03:45:41.222Z,8.27
2018-07-21T03:48:10.656Z,7.40
2018-07-21T03:50:41.053Z,8.50
2018-07-21T03:53:11.025Z,8.30
2018-07-21T03:55:40.742Z,7.50
2018-07-21T03:58:11.474Z,8.23
2018-07-21T04:00:41.044Z,7.40
2018-07-21T04:03:11.351Z,7.40
2018-07-21T04:05:41.172Z,9.30
2018-07-21T04:08:11.777Z,8.03
2018-07-21T04:10:48.452Z,9.80
2018-07-21T04:13:19.735Z,9.00
2018-07-21T04:15:49.490Z,9.17
2018-07-21T04:18:20.629Z,8.60
2018-07-21T04:20:50.508Z,9.20
2018-07-21T04:23:20.813Z,8.43
2018-07-21T04:25:50.813Z,9.90
2018-07-21T04:28:20.669Z,8.20
2018-07-21T04:30:50.826Z,9.00
2018-07-21T04:33:21.534Z,8.00
2018-07-21T04:35:52.107Z,7.70
2018-07-21T04:38:23.404Z,8.90
2018-07-21T04:40:54.143Z,7.27
2018-07-21T04:43:24.654Z,9.00
2018-07-21T04:45:54.412Z,9.07
2018-07-21T04:48:25.096Z,8.07
2018-07-21T04:50:55.053Z,7.60
2018-07-21T04:53:24.702Z,8.07
2018-07-21T04:55:54.606Z,9.90
2018-07-21T04:58:26.449Z,13.30
2018-07-21T05:00:57.358Z,7.87
2018-07-21T05:03:26.785Z,7.67
2018-07-21T05:05:56.280Z,8.93
2018-07-21T05:08:26.615Z,8.00
2018-07-21T05:10:56.421Z,8.03
2018-07-21T05:13:26.184Z,7.83
2018-07-21T05:15:55.826Z,7.53
2018-07-21T05:18:25.917Z,7.80
2018-07-21T05:20:56.045Z,7.47
2018-07-21T05:23:25.743Z,7.73
2018-07-21T05:25:56.262Z,9.27
2018-07-21T05:28:26.640Z,8.23
2018-07-21T05:30:56.927Z,7.60
2018-07-21T05:33:26.648Z,8.03
2018-07-21T05:35:56.647Z,8.77
2018-07-21T05:38:26.337Z,9.47
2018-07-21T05:40:56.233Z,8.40
2018-07-21T05:43:26.108Z,8.30
2018-07-21T05:45:56.023Z,7.93
2018-07-21T05:48:26.199Z,8.67
2018-07-21T05:50:57.788Z,8.67
2018-07-21T05:53:27.860Z,8.07
2018-07-21T05:55:58.573Z,7.47
2018-07-21T05:58:28.640Z,8.10
2018-07-21T06:00:58.376Z,8.33
2018-07-21T06:03:28.154Z,8.40
2018-07-21T06:05:58.054Z,8.30
2018-07-21T06:08:28.084Z,7.33
2018-07-21T06:10:57.597Z,7.13
2018-07-21T06:13:27.090Z,7.80
2018-07-21T06:15:56.534Z,7.30
2018-07-21T06:18:26.049Z,8.17
2018-07-21T06:20:55.508Z,7.20
2018-07-21T06:23:25.341Z,7.53
2018-07-21T06:25:55.659Z,8.90
2018-07-21T06:28:26.224Z,8.03
2018-07-21T06:30:56.557Z,7.47
2018-07-21T06:33:27.882Z,7.20
2018-07-21T06:35:57.851Z,7.43
2018-07-21T06:38:27.457Z,7.90
2018-07-21T06:40:57.646Z,7.93
2018-07-21T06:43:27.887Z,8.70
2018-07-21T06:45:57.404Z,8.30
2018-07-21T06:48:27.372Z,8.90
2018-07-21T06:50:56.857Z,7.60
2018-07-21T06:53:26.719Z,7.70
2018-07-21T06:55:56.249Z,7.77
2018-07-21T06:58:27.364Z,8.13
2018-07-21T07:00:57.494Z,9.00
2018-07-21T07:03:27.607Z,8.27
2018-07-21T07:05:57.987Z,8.10
2018-07-21T07:08:28.620Z,8.90
2018-07-21T07:10:58.494Z,9.00
2018-07-21T07:13:28.273Z,8.00
2018-07-21T07:15:58.002Z,8.13
2018-07-21T07:18:27.973Z,8.10
2018-07-21T07:21:00.073Z,6.80
2018-07-21T07:23:30.023Z,8.13
2018-07-21T07:25:59.974Z,8.77
2018-07-21T07:28:30.363Z,9.40
2018-07-21T07:31:00.621Z,9.80
2018-07-21T07:33:30.282Z,7.53
2018-07-21T07:36:00.749Z,7.97
2018-07-21T07:38:30.900Z,8.67
2018-07-21T07:41:00.887Z,9.80
2018-07-21T07:43:32.354Z,8.40
2018-07-21T07:46:01.867Z,7.40
2018-07-21T07:48:31.302Z,8.33
2018-07-21T07:51:02.121Z,12.03
2018-07-21T07:53:31.921Z,7.17
2018-07-21T07:56:01.990Z,9.17
2018-07-21T07:58:32.232Z,10.60
2018-07-21T08:01:02.333Z,8.87
2018-07-21T08:03:32.429Z,7.43
2018-07-21T08:06:02.252Z,7.97
2018-07-21T08:08:32.031Z,7.50
2018-07-21T08:11:01.939Z,9.93
2018-07-21T08:13:32.330Z,7.80
2018-07-21T08:16:02.610Z,8.57
2018-07-21T08:18:32.876Z,7.73
2018-07-21T08:21:03.060Z,8.07
2018-07-21T08:23:32.774Z,8.27
2018-07-21T08:26:02.446Z,8.70
2018-07-21T08:28:32.560Z,8.07
2018-07-21T08:31:02.655Z,9.17
2018-07-21T08:33:34.339Z,7.83
2018-07-21T08:36:05.621Z,7.00
2018-07-21T08:38:36.139Z,8.43
2018-07-21T08:41:06.131Z,8.57
2018-07-21T08:43:36.656Z,7.67
2018-07-21T08:46:07.113Z,7.20
2018-07-21T08:48:38.764Z,9.13
2018-07-21T08:51:09.608Z,8.50
2018-07-21T08:53:41.320Z,8.03
2018-07-21T08:56:14.819Z,8.47
2018-07-21T08:58:45.128Z,8.40
2018-07-21T09:01:17.678Z,7.43
2018-07-21T09:03:50.896Z,7.97
2018-07-21T09:06:23.188Z,8.70
2018-07-21T09:08:54.589Z,6.93
2018-07-21T09:11:24.159Z,7.33
2018-07-21T09:13:55.820Z,7.40
2018-07-21T09:16:27.208Z,6.93
2018-07-21T09:18:57.556Z,7.47
2018-07-21T09:21:29.700Z,7.13
2018-07-21T09:24:00.352Z,7.30
2018-07-21T09:26:30.049Z,7.10
2018-07-21T09:29:00.049Z,7.23
2018-07-21T09:31:30.978Z,7.03
2018-07-21T09:34:00.921Z,7.00
2018-07-21T09:36:30.605Z,6.70
2018-07-21T09:39:02.364Z,8.63
2018-07-21T09:41:32.461Z,7.70
2018-07-21T09:44:03.078Z,7.47
2018-07-21T09:46:33.162Z,7.00
2018-07-21T09:49:03.884Z,6.63
2018-07-21T09:51:33.974Z,7.50
2018-07-21T09:54:04.226Z,6.93
2018-07-21T09:56:34.251Z,8.20
2018-07-21T09:59:04.027Z,6.93
2018-07-21T10:01:34.588Z,7.60
2018-07-21T10:04:05.060Z,7.43
2018-07-21T10:06:35.152Z,8.47
2018-07-21T10:09:07.845Z,8.23
2018-07-21T10:11:37.703Z,7.33
2018-07-21T10:14:08.486Z,6.27
2018-07-21T10:16:38.341Z,7.00
2018-07-21T10:19:08.177Z,7.40
2018-07-21T10:21:39.939Z,6.70
2018-07-21T10:24:18.962Z,7.90
2018-07-21T10:26:54.768Z,7.20
2018-07-21T10:29:24.634Z,8.90
2018-07-21T10:31:54.167Z,6.80
2018-07-21T10:34:25.071Z,8.20
2018-07-21T10:36:55.435Z,6.17
2018-07-21T10:39:26.144Z,6.50
2018-07-21T10:42:00.495Z,5.30
2018-07-21T10:44:32.527Z,7.43
2018-07-21T10:47:04.526Z,6.37
2018-07-21T10:49:34.876Z,5.57
2018-07-21T10:52:05.947Z,6.43
2018-07-21T10:54:37.089Z,6.30
2018-07-21T10:57:08.205Z,6.73
2018-07-21T10:59:38.572Z,6.80
2018-07-21T11:02:09.686Z,7.27
2018-07-21T11:04:39.192Z,6.60
2018-07-21T11:07:09.013Z,6.13
2018-07-21T11:09:39.325Z,7.40
2018-07-21T11:12:09.028Z,6.67
2018-07-21T11:14:38.604Z,6.53
2018-07-21T11:17:08.654Z,6.60
2018-07-21T11:19:38.890Z,6.83
2018-07-21T11:22:09.322Z,7.47
2018-07-21T11:24:38.912Z,6.33
2018-07-21T11:27:09.024Z,7.40
2018-07-21T11:29:39.864Z,7.63
2018-07-21T11:32:09.749Z,7.70
2018-07-21T11:34:39.719Z,7.70
2018-07-21T11:37:12.982Z,6.87
2018-07-21T11:39:42.951Z,8.60
2018-07-21T11:42:13.464Z,7.50
2018-07-21T11:44:44.028Z,6.83
2018-07-21T11:47:14.566Z,7.10
2018-07-21T11:49:44.373Z,8.17
2018-07-21T11:52:14.258Z,7.00
2018-07-21T11:54:43.834Z,7.17
2018-07-21T11:57:13.725Z,6.30
2018-07-21T11:59:43.543Z,6.60
2018-07-21T12:02:14.398Z,6.60
2018-07-21T12:04:44.796Z,6.93
2018-07-21T12:07:19.461Z,7.10
2018-07-21T12:09:49.945Z,8.53
2018-07-21T12:12:21.604Z,8.53
2018-07-21T12:14:52.951Z,7.30
2018-07-21T12:17:22.396Z,7.63
2018-07-21T12:19:55.493Z,6.93
2018-07-21T12:22:25.977Z,7.20
2018-07-21T12:24:55.603Z,7.60
2018-07-21T12:27:27.957Z,7.40
2018-07-21T12:30:00.078Z,9.30
2018-07-21T12:32:30.667Z,8.23
2018-07-21T12:35:01.163Z,7.70
2018-07-21T12:37:31.407Z,8.03
2018-07-21T12:40:04.732Z,9.47
2018-07-21T12:42:34.944Z,7.63
2018-07-21T12:45:09.966Z,7.87
2018-07-21T12:47:42.783Z,8.40
2018-07-21T12:50:12.821Z,8.17
2018-07-21T12:52:45.930Z,7.93
2018-07-21T12:55:17.531Z,8.83
2018-07-21T12:57:48.043Z,7.13
2018-07-21T13:00:17.795Z,8.30
2018-07-21T13:02:49.047Z,8.43
2018-07-21T13:05:18.981Z,10.87
2018-07-21T13:07:51.289Z,7.10
2018-07-21T13:10:20.974Z,7.53
2018-07-21T13:12:51.716Z,8.00
2018-07-21T13:15:21.327Z,9.07
2018-07-21T13:17:51.484Z,8.50
2018-07-21T13:20:21.236Z,8.00
2018-07-21T13:22:51.319Z,9.77
2018-07-21T13:25:21.834Z,8.73
2018-07-21T13:27:51.760Z,8.83
2018-07-21T13:30:21.981Z,8.83
2018-07-21T13:32:51.885Z,7.50
2018-07-21T13:35:22.931Z,9.70
2018-07-21T13:37:53.367Z,7.77
2018-07-21T13:40:23.338Z,8.33
2018-07-21T13:42:53.732Z,7.47
2018-07-21T13:45:23.816Z,7.73
2018-07-21T13:47:53.480Z,11.50
2018-07-21T13:50:23.214Z,8.00
2018-07-21T13:52:53.338Z,8.10
2018-07-21T13:55:23.245Z,8.30
2018-07-21T13:57:53.535Z,7.20
2018-07-21T14:00:23.033Z,7.50
2018-07-21T14:02:53.307Z,8.53
2018-07-21T14:05:24.288Z,7.53
2018-07-21T14:07:54.690Z,8.87
2018-07-21T14:10:24.271Z,9.07
2018-07-21T14:12:54.742Z,8.57
2018-07-21T14:15:25.054Z,7.93
2018-07-21T14:17:54.948Z,8.37
2018-07-21T14:20:24.934Z,8.63
2018-07-21T14:22:54.487Z,9.00
2018-07-21T14:25:24.331Z,9.60
2018-07-21T14:27:54.123Z,8.07
2018-07-21T14:30:24.486Z,8.77
2018-07-21T14:32:54.587Z,9.03
2018-07-21T14:35:24.800Z,7.93
2018-07-21T14:37:56.598Z,8.53
2018-07-21T14:40:30.670Z,13.53
2018-07-21T14:43:01.339Z,8.83
2018-07-21T14:45:33.095Z,17.00
2018-07-21T14:48:09.600Z,10.10
2018-07-21T14:50:43.847Z,12.70
2018-07-21T14:53:22.416Z,11.37
2018-07-21T14:55:59.375Z,15.23
2018-07-21T14:58:29.955Z,13.97
2018-07-21T15:01:07.212Z,12.37
2018-07-21T15:03:50.672Z,13.83
2018-07-21T15:06:24.646Z,14.10
2018-07-21T15:09:01.508Z,13.73
2018-07-21T15:11:44.911Z,11.50
2018-07-21T15:14:24.497Z,17.00
2018-07-21T15:16:59.546Z,16.43
2018-07-21T15:19:30.227Z,13.97
2018-07-21T15:22:21.495Z,12.20
2018-07-21T15:24:58.008Z,14.80
2018-07-21T15:27:33.950Z,18.90
2018-07-21T15:30:12.059Z,15.73
2018-07-21T15:32:47.512Z,12.73
2018-07-21T15:35:34.478Z,14.27
2018-07-21T15:38:06.777Z,14.43
2018-07-21T15:40:37.164Z,12.53
2018-07-21T15:43:08.300Z,15.30
2018-07-21T15:45:42.036Z,18.20
2018-07-21T15:48:12.331Z,14.17
2018-07-21T15:50:45.897Z,14.47
2018-07-21T15:53:19.565Z,12.10
2018-07-21T15:55:54.174Z,13.20
2018-07-21T15:58:26.324Z,10.67
2018-07-21T16:01:00.835Z,20.27
2018-07-21T16:03:38.546Z,17.93
2018-07-21T16:06:15.107Z,21.87
2018-07-21T16:08:45.916Z,15.30
2018-07-21T16:11:24.998Z,17.00
2018-07-21T16:14:00.766Z,11.80
2018-07-21T16:16:32.911Z,13.87
2018-07-21T16:19:12.478Z,14.27
2018-07-21T16:21:43.647Z,12.30
2018-07-21T16:24:14.490Z,16.07
2018-07-21T16:26:52.387Z,14.03
2018-07-21T16:29:27.993Z,12.20
2018-07-21T16:32:01.065Z,14.00
2018-07-21T16:34:35.460Z,17.97
2018-07-21T16:37:20.184Z,16.83
2018-07-21T16:39:55.627Z,15.23
2018-07-21T16:43:30.882Z,13.93
2018-07-21T16:46:06.412Z,17.13
2018-07-21T16:48:37.907Z,20.97
2018-07-21T16:51:12.709Z,20.53
2018-07-21T16:53:45.627Z,18.03
2018-07-21T16:56:20.862Z,12.40
2018-07-21T16:58:50.782Z,10.93
2018-07-21T17:01:22.695Z,13.30
2018-07-21T17:03:58.610Z,11.93
2018-07-21T17:06:33.222Z,10.33
2018-07-21T17:09:03.868Z,10.07
2018-07-21T17:11:34.789Z,10.17
2018-07-21T17:14:04.949Z,9.67
2018-07-21T17:16:34.828Z,9.60
2018-07-21T17:19:05.631Z,11.60
2018-07-21T17:21:35.758Z,11.97
2018-07-21T17:24:05.875Z,10.47
2018-07-21T17:26:35.520Z,10.70
2018-07-21T17:29:05.144Z,10.50
2018-07-21T17:31:34.607Z,11.73
2018-07-21T17:34:04.887Z,9.23
2018-07-21T17:36:35.677Z,9.80
2018-07-21T17:39:08.002Z,10.80
2018-07-21T17:41:37.839Z,11.53
2018-07-21T17:44:08.828Z,10.60
2018-07-21T17:46:38.744Z,11.60
2018-07-21T17:49:08.700Z,11.67
2018-07-21T17:51:38.808Z,11.50
2018-07-21T17:54:08.675Z,11.00
2018-07-21T17:56:39.555Z,10.50
2018-07-21T17:59:09.720Z,11.90
2018-07-21T18:01:39.790Z,11.70
2018-07-21T18:04:09.348Z,11.30
2018-07-21T18:06:39.285Z,12.40
2018-07-21T18:09:13.842Z,13.37
2018-07-21T18:11:44.153Z,12.10
2018-07-21T18:14:15.092Z,11.90
2018-07-21T18:16:45.541Z,11.67
2018-07-21T18:19:17.274Z,11.50
2018-07-21T18:21:48.409Z,14.30
2018-07-21T18:24:19.718Z,11.43
2018-07-21T18:26:53.629Z,11.10
2018-07-21T18:29:26.665Z,10.80
2018-07-21T18:32:00.187Z,11.10
2018-07-21T18:34:38.647Z,11.50
2018-07-21T18:37:09.324Z,12.70
2018-07-21T18:39:50.519Z,14.20
2018-07-21T18:42:27.782Z,11.47
2018-07-21T18:45:00.550Z,12.80
2018-07-21T18:47:32.196Z,13.53
2018-07-21T18:50:02.763Z,11.93
2018-07-21T18:52:32.448Z,10.97
2018-07-21T18:55:03.076Z,12.17
2018-07-21T18:57:34.423Z,10.93
2018-07-21T19:00:06.494Z,10.80
2018-07-21T19:02:37.047Z,11.23
2018-07-21T19:05:09.054Z,10.60
2018-07-21T19:07:40.502Z,10.93
2018-07-21T19:10:12.591Z,11.60
2018-07-21T19:12:47.532Z,13.43
2018-07-21T19:17:24.931Z,13.17
2018-07-21T19:20:03.582Z,12.00
2018-07-21T19:22:36.699Z,13.40
2018-07-21T19:25:14.084Z,12.50
2018-07-21T19:27:43.961Z,13.60
2018-07-21T19:30:14.620Z,13.70
2018-07-21T19:32:51.792Z,12.30
2018-07-21T19:35:28.645Z,12.60
2018-07-21T19:38:00.480Z,12.03
2018-07-21T19:40:31.511Z,12.40
2018-07-21T19:43:05.190Z,15.70
2018-07-21T19:45:36.109Z,11.67
2018-07-21T19:48:07.011Z,11.73
2018-07-21T19:50:36.993Z,12.07
2018-07-21T19:53:07.497Z,12.30
2018-07-21T19:55:39.868Z,10.83
2018-07-21T19:58:11.083Z,11.07
2018-07-21T20:00:41.320Z,10.93
2018-07-21T20:03:11.132Z,11.53
2018-07-21T20:05:41.033Z,12.30
2018-07-21T20:08:12.115Z,13.10
2018-07-21T20:10:42.037Z,10.80
2018-07-21T20:13:12.327Z,12.27
2018-07-21T20:15:42.604Z,13.27
2018-07-21T20:18:15.239Z,13.07
2018-07-21T20:20:46.006Z,13.23
2018-07-21T20:23:17.233Z,15.70
2018-07-21T20:25:47.887Z,14.37
2018-07-21T20:28:19.550Z,13.43
2018-07-21T20:30:49.772Z,13.00
2018-07-21T20:33:21.181Z,12.77
2018-07-21T20:35:51.969Z,15.07
2018-07-21T20:38:24.268Z,16.63
2018-07-21T20:40:54.301Z,20.40
2018-07-21T20:43:24.885Z,32.13
2018-07-21T20:45:57.037Z,30.60
2018-07-21T20:48:26.976Z,25.40
2018-07-21T20:50:56.732Z,20.87
2018-07-21T20:53:27.703Z,24.00
2018-07-21T20:55:57.408Z,21.60
2018-07-21T20:58:27.781Z,21.50
2018-07-21T21:00:58.657Z,19.50
2018-07-21T21:03:28.923Z,16.27
2018-07-21T21:05:59.423Z,15.73
2018-07-21T21:08:29.744Z,15.90
2018-07-21T21:11:01.799Z,15.17
2018-07-21T21:13:39.118Z,16.50
2018-07-21T21:16:12.593Z,14.23
2018-07-21T21:18:43.973Z,13.60
2018-07-21T21:24:34.843Z,14.37
2018-07-21T21:27:05.506Z,15.03
2018-07-21T21:29:35.666Z,14.77
2018-07-21T21:32:06.559Z,16.40
2018-07-21T21:34:36.935Z,16.00
2018-07-21T21:37:06.980Z,16.63
2018-07-21T21:39:37.648Z,16.90
2018-07-21T21:42:09.575Z,16.83
2018-07-21T21:44:40.237Z,19.50
2018-07-21T21:47:10.130Z,18.70
2018-07-21T21:49:39.960Z,17.67
2018-07-21T21:52:09.775Z,18.50
2018-07-21T21:54:39.966Z,19.43
2018-07-21T21:57:09.941Z,17.90
2018-07-21T21:59:39.827Z,17.70
2018-07-21T22:02:11.432Z,16.83
2018-07-21T22:04:41.529Z,18.37
2018-07-21T22:07:12.703Z,18.70
2018-07-21T22:09:42.383Z,18.03
2018-07-21T22:12:13.209Z,17.70
2018-07-21T22:14:43.354Z,17.50
2018-07-21T22:17:14.053Z,18.70
2018-07-21T22:19:49.429Z,17.40
2018-07-21T22:22:20.082Z,16.57
2018-07-21T22:24:49.887Z,14.87
2018-07-21T22:27:20.759Z,14.37
2018-07-21T22:29:50.643Z,14.67
2018-07-21T22:32:20.414Z,14.17
2018-07-21T22:34:51.830Z,13.80
2018-07-21T22:37:22.205Z,15.53
2018-07-21T22:39:54.003Z,15.80
2018-07-21T22:42:25.015Z,13.33
2018-07-21T22:44:55.897Z,12.00
2018-07-21T22:47:25.564Z,11.10
2018-07-21T22:49:55.321Z,11.90
2018-07-21T22:52:25.670Z,11.80
2018-07-21T22:54:55.683Z,12.37
2018-07-21T22:57:25.845Z,11.17
2018-07-21T22:59:55.979Z,12.13
2018-07-21T23:02:25.609Z,11.43
2018-07-21T23:04:56.381Z,11.13
2018-07-21T23:07:35.127Z,10.30
2018-07-21T23:10:04.962Z,9.60
2018-07-21T23:12:34.837Z,10.47
2018-07-21T23:15:05.120Z,10.73
2018-07-21T23:17:35.975Z,10.60
2018-07-21T23:20:07.343Z,9.47
2018-07-21T23:22:37.728Z,9.07
2018-07-21T23:25:07.829Z,8.43
2018-07-21T23:27:38.606Z,8.70
2018-07-21T23:30:08.257Z,8.63
2018-07-21T23:32:38.626Z,9.03
2018-07-21T23:35:08.635Z,8.77
2018-07-21T23:37:38.634Z,8.87
2018-07-21T23:40:08.793Z,10.20
2018-07-21T23:42:39.665Z,8.30
2018-07-21T23:45:09.471Z,7.60
2018-07-21T23:47:39.936Z,8.70
2018-07-21T23:50:10.218Z,11.77
2018-07-21T23:52:40.290Z,8.57
2018-07-21T23:55:10.254Z,8.13
2018-07-21T23:57:40.406Z,8.87
